createdAt,value
2018-10-05T00:01:44.851Z,88.49
2018-10-05T00:04:13.215Z,88.46
2018-10-05T00:06:41.555Z,88.47
2018-10-05T00:09:11.566Z,87.96
2018-10-05T00:11:39.802Z,87.64
2018-10-05T00:14:08.445Z,88.51
2018-10-05T00:16:36.600Z,88.63
2018-10-05T00:19:04.846Z,88.46
2018-10-05T00:21:33.244Z,88.17
2018-10-05T00:24:01.622Z,88.12
2018-10-05T00:26:29.804Z,88.33
2018-10-05T00:28:57.941Z,88.13
2018-10-05T00:31:26.260Z,87.62
2018-10-05T00:33:54.538Z,87.12
2018-10-05T00:36:22.626Z,87.18
2018-10-05T00:38:50.745Z,86.81
2018-10-05T00:41:19.023Z,86.82
2018-10-05T00:43:47.209Z,86.72
2018-10-05T00:46:15.511Z,86.68
2018-10-05T00:48:43.667Z,86.15
2018-10-05T00:51:11.857Z,86.15
2018-10-05T00:53:40.122Z,85.97
2018-10-05T00:56:08.405Z,86.29
2018-10-05T00:58:36.710Z,86.35
2018-10-05T01:01:05.090Z,86.01
2018-10-05T01:03:33.232Z,86.03
2018-10-05T01:06:01.578Z,86.10
2018-10-05T01:08:29.796Z,86.03
2018-10-05T01:10:57.952Z,86.28
2018-10-05T01:13:30.459Z,86.03
2018-10-05T01:15:58.680Z,85.99
2018-10-05T01:18:26.916Z,86.37
2018-10-05T01:20:55.069Z,86.37
2018-10-05T01:23:23.233Z,86.33
2018-10-05T01:25:51.412Z,86.76
2018-10-05T01:28:19.696Z,86.29
2018-10-05T01:30:48.368Z,86.42
2018-10-05T01:33:16.498Z,86.84
2018-10-05T01:35:44.637Z,86.60
2018-10-05T01:38:12.764Z,86.48
2018-10-05T01:40:40.914Z,86.42
2018-10-05T01:43:09.064Z,86.24
2018-10-05T01:45:37.358Z,86.12
2018-10-05T01:48:05.899Z,86.00
2018-10-05T01:50:34.290Z,86.32
2018-10-05T01:53:02.559Z,86.18
2018-10-05T01:55:31.278Z,86.19
2018-10-05T01:57:59.520Z,85.40
2018-10-05T02:00:27.679Z,84.87
2018-10-05T02:02:55.911Z,85.18
2018-10-05T02:05:24.144Z,85.52
2018-10-05T02:07:52.355Z,86.08
2018-10-05T02:10:20.718Z,85.22
2018-10-05T02:12:48.861Z,85.31
2018-10-05T02:15:17.056Z,85.36
2018-10-05T02:17:45.456Z,85.27
2018-10-05T02:20:13.586Z,85.96
2018-10-05T02:22:41.768Z,86.01
2018-10-05T02:25:10.056Z,85.43
2018-10-05T02:27:38.461Z,85.68
2018-10-05T02:30:06.465Z,84.98
2018-10-05T02:32:34.636Z,85.41
2018-10-05T02:35:02.793Z,85.40
2018-10-05T02:37:30.923Z,84.95
2018-10-05T02:39:59.098Z,84.91
2018-10-05T02:42:27.274Z,84.44
2018-10-05T02:44:55.509Z,84.94
2018-10-05T02:47:23.632Z,84.94
2018-10-05T02:49:51.756Z,84.82
2018-10-05T02:52:20.036Z,84.81
2018-10-05T02:54:48.213Z,85.20
2018-10-05T02:57:17.464Z,84.92
2018-10-05T02:59:45.583Z,84.80
2018-10-05T03:02:25.160Z,85.07
2018-10-05T03:04:53.315Z,84.51
2018-10-05T03:07:21.588Z,84.86
2018-10-05T03:09:49.816Z,84.93
2018-10-05T03:12:18.041Z,84.71
2018-10-05T03:14:46.868Z,84.67
2018-10-05T03:17:15.295Z,84.86
2018-10-05T03:19:43.662Z,84.25
2018-10-05T03:22:11.847Z,84.58
2018-10-05T03:24:40.040Z,84.74
2018-10-05T03:27:08.236Z,83.76
2018-10-05T03:29:36.493Z,83.94
2018-10-05T03:32:04.787Z,83.70
2018-10-05T03:34:32.901Z,84.12
2018-10-05T03:37:02.483Z,83.70
2018-10-05T03:39:30.738Z,83.76
2018-10-05T03:41:58.894Z,83.55
2018-10-05T03:44:27.025Z,82.95
2018-10-05T03:46:55.187Z,82.78
2018-10-05T03:49:23.349Z,83.33
2018-10-05T03:51:51.474Z,82.71
2018-10-05T03:54:19.641Z,82.67
2018-10-05T03:56:47.823Z,82.83
2018-10-05T03:59:15.958Z,82.36
2018-10-05T04:01:44.121Z,82.17
2018-10-05T04:04:12.295Z,82.64
2018-10-05T04:06:40.499Z,82.23
2018-10-05T04:09:09.885Z,82.22
2018-10-05T04:11:38.030Z,81.92
2018-10-05T04:14:06.237Z,82.11
2018-10-05T04:16:34.460Z,82.35
2018-10-05T04:19:02.759Z,81.60
2018-10-05T04:21:31.529Z,81.58
2018-10-05T04:23:59.727Z,81.76
2018-10-05T04:26:27.972Z,81.17
2018-10-05T04:28:56.876Z,80.13
2018-10-05T04:31:25.415Z,80.77
2018-10-05T04:33:53.607Z,80.99
2018-10-05T04:36:21.843Z,80.56
2018-10-05T04:38:50.040Z,81.33
2018-10-05T04:41:18.204Z,81.47
2018-10-05T04:43:52.385Z,80.98
2018-10-05T04:46:21.027Z,81.17
2018-10-05T04:48:49.213Z,81.68
2018-10-05T04:51:17.321Z,80.59
2018-10-05T04:53:46.327Z,80.33
2018-10-05T04:56:15.173Z,80.70
2018-10-05T04:58:43.773Z,80.03
2018-10-05T05:01:11.997Z,79.97
2018-10-05T05:03:40.281Z,80.57
2018-10-05T05:06:08.384Z,80.31
2018-10-05T05:08:36.712Z,80.78
2018-10-05T05:11:05.043Z,80.56
2018-10-05T05:13:33.271Z,80.54
2018-10-05T05:16:01.965Z,81.63
2018-10-05T05:18:30.100Z,81.57
2018-10-05T05:21:05.124Z,81.39
2018-10-05T05:23:33.273Z,81.73
2018-10-05T05:26:02.423Z,80.67
2018-10-05T05:28:30.585Z,81.04
2018-10-05T05:30:58.769Z,81.94
2018-10-05T05:33:27.085Z,81.25
2018-10-05T05:35:55.295Z,81.22
2018-10-05T05:38:23.501Z,81.23
2018-10-05T05:40:51.747Z,80.81
2018-10-05T05:43:20.077Z,80.66
2018-10-05T05:45:48.281Z,81.01
2018-10-05T05:48:16.453Z,80.97
2018-10-05T05:50:44.675Z,80.71
2018-10-05T05:53:13.012Z,80.83
2018-10-05T05:55:41.291Z,80.94
2018-10-05T05:58:09.679Z,80.69
2018-10-05T06:00:37.989Z,79.32
2018-10-05T06:03:06.129Z,79.78
2018-10-05T06:05:34.296Z,79.51
2018-10-05T06:08:02.464Z,79.44
2018-10-05T06:10:30.615Z,79.72
2018-10-05T06:12:59.281Z,79.47
2018-10-05T06:15:27.504Z,79.81
2018-10-05T06:17:55.716Z,79.40
2018-10-05T06:20:24.376Z,79.59
2018-10-05T06:22:52.619Z,80.02
2018-10-05T06:25:20.757Z,79.44
2018-10-05T06:27:49.034Z,79.79
2018-10-05T06:30:17.252Z,79.30
2018-10-05T06:32:46.057Z,79.79
2018-10-05T06:35:14.785Z,79.03
2018-10-05T06:37:43.450Z,79.17
2018-10-05T06:40:11.889Z,78.88
2018-10-05T06:42:41.930Z,78.79
2018-10-05T06:45:10.309Z,78.48
2018-10-05T06:47:38.483Z,78.48
2018-10-05T06:50:06.869Z,77.81
2018-10-05T06:52:35.027Z,77.61
2018-10-05T06:55:03.213Z,78.04
2018-10-05T06:57:31.573Z,77.56
2018-10-05T06:59:59.770Z,77.20
2018-10-05T07:02:28.669Z,77.37
2018-10-05T07:04:57.855Z,76.65
2018-10-05T07:07:26.220Z,76.22
2018-10-05T07:09:54.528Z,75.41
2018-10-05T07:12:23.043Z,75.03
2018-10-05T07:14:51.193Z,74.37
2018-10-05T07:17:19.429Z,73.64
2018-10-05T07:19:48.242Z,73.70
2018-10-05T07:22:17.867Z,73.49
2018-10-05T07:24:46.135Z,73.12
2018-10-05T07:27:14.367Z,73.82
2018-10-05T07:29:42.595Z,73.12
2018-10-05T07:32:10.806Z,73.80
2018-10-05T07:34:38.963Z,73.32
2018-10-05T07:37:07.360Z,73.30
2018-10-05T07:39:35.446Z,73.79
2018-10-05T07:42:03.694Z,73.03
2018-10-05T07:44:31.852Z,72.10
2018-10-05T07:47:00.187Z,71.74
2018-10-05T07:49:28.451Z,71.32
2018-10-05T07:51:56.750Z,71.10
2018-10-05T07:54:24.834Z,70.70
2018-10-05T07:56:52.999Z,71.44
2018-10-05T07:59:21.282Z,71.23
2018-10-05T08:01:49.573Z,70.59
2018-10-05T08:04:17.844Z,70.16
2018-10-05T08:06:46.123Z,70.80
2018-10-05T08:09:14.711Z,70.48
2018-10-05T08:11:42.962Z,70.35
2018-10-05T08:14:11.159Z,70.16
2018-10-05T08:16:39.278Z,70.44
2018-10-05T08:19:09.921Z,69.35
2018-10-05T08:21:39.599Z,69.51
2018-10-05T08:24:15.452Z,69.45
2018-10-05T08:26:46.090Z,68.54
2018-10-05T08:29:17.799Z,68.42
2018-10-05T08:31:47.740Z,67.67
2018-10-05T08:34:16.937Z,67.98
2018-10-05T08:36:45.287Z,67.92
2018-10-05T08:39:13.465Z,67.31
2018-10-05T08:41:41.740Z,67.08
2018-10-05T08:44:10.298Z,66.28
2018-10-05T08:46:38.805Z,65.64
2018-10-05T08:49:07.590Z,66.20
2018-10-05T08:51:36.035Z,65.74
2018-10-05T08:54:04.277Z,65.10
2018-10-05T08:56:32.794Z,63.56
2018-10-05T08:59:00.927Z,63.21
2018-10-05T09:01:29.162Z,63.42
2018-10-05T09:03:57.320Z,63.40
2018-10-05T09:06:25.414Z,64.40
2018-10-05T09:08:53.580Z,63.22
2018-10-05T09:11:21.883Z,63.15
2018-10-05T09:13:50.161Z,61.97
2018-10-05T09:16:18.392Z,62.71
2018-10-05T09:18:46.720Z,62.75
2018-10-05T09:21:14.950Z,63.21
2018-10-05T09:23:43.157Z,62.81
2018-10-05T09:26:11.420Z,62.54
2018-10-05T09:28:39.680Z,61.57
2018-10-05T09:31:07.944Z,61.15
2018-10-05T09:33:36.156Z,61.65
2018-10-05T09:36:04.370Z,60.95
2018-10-05T09:38:32.666Z,60.31
2018-10-05T09:41:00.974Z,59.99
2018-10-05T09:43:29.396Z,60.34
2018-10-05T09:45:57.525Z,59.74
2018-10-05T09:48:25.744Z,59.98
2018-10-05T09:50:54.116Z,59.70
2018-10-05T09:53:22.689Z,59.37
2018-10-05T09:55:50.516Z,58.43
2018-10-05T09:58:18.905Z,57.55
2018-10-05T10:00:52.532Z,57.62
2018-10-05T10:03:26.026Z,57.70
2018-10-05T10:05:54.266Z,57.07
2018-10-05T10:08:22.553Z,56.67
2018-10-05T10:10:50.755Z,57.69
2018-10-05T10:13:18.904Z,58.35
2018-10-05T10:15:47.152Z,57.45
2018-10-05T10:18:15.343Z,56.94
2018-10-05T10:20:43.598Z,55.70
2018-10-05T10:23:11.801Z,55.66
2018-10-05T10:25:39.986Z,55.26
2018-10-05T10:28:08.276Z,56.05
2018-10-05T10:30:36.385Z,55.44
2018-10-05T10:33:04.518Z,55.57
2018-10-05T10:35:32.715Z,55.02
2018-10-05T10:38:01.489Z,54.79
2018-10-05T10:40:29.661Z,55.30
2018-10-05T10:42:57.940Z,54.18
2018-10-05T10:45:26.147Z,53.82
2018-10-05T10:47:54.396Z,54.37
2018-10-05T10:50:22.535Z,54.41
2018-10-05T10:52:50.725Z,54.52
2018-10-05T10:55:18.957Z,54.30
2018-10-05T10:57:47.263Z,53.33
2018-10-05T11:00:15.429Z,53.55
2018-10-05T11:02:43.587Z,54.31
2018-10-05T11:05:12.150Z,54.49
2018-10-05T11:07:40.402Z,54.16
2018-10-05T11:10:08.721Z,54.86
2018-10-05T11:12:36.941Z,53.29
2018-10-05T11:15:05.179Z,54.11
2018-10-05T11:17:36.029Z,52.68
2018-10-05T11:20:04.611Z,52.33
2018-10-05T11:22:32.954Z,51.57
2018-10-05T11:25:01.588Z,52.10
2018-10-05T11:27:29.769Z,51.90
2018-10-05T11:29:58.091Z,51.69
2018-10-05T11:32:26.478Z,52.61
2018-10-05T11:34:54.777Z,51.45
2018-10-05T11:37:23.316Z,51.55
2018-10-05T11:39:51.523Z,51.53
2018-10-05T11:42:19.801Z,51.35
2018-10-05T11:44:48.409Z,52.00
2018-10-05T11:47:16.729Z,51.65
2018-10-05T11:49:44.920Z,51.50
2018-10-05T11:52:13.212Z,51.84
2018-10-05T11:54:41.765Z,50.80
2018-10-05T11:57:10.213Z,50.03
2018-10-05T11:59:38.384Z,50.65
2018-10-05T12:02:06.660Z,50.46
2018-10-05T12:04:34.886Z,50.14
2018-10-05T12:07:03.118Z,48.75
2018-10-05T12:09:31.347Z,48.38
2018-10-05T12:11:59.525Z,48.19
2018-10-05T12:14:27.700Z,48.33
2018-10-05T12:16:56.040Z,49.21
2018-10-05T12:19:24.359Z,49.36
2018-10-05T12:21:52.588Z,48.38
2018-10-05T12:24:21.011Z,48.00
2018-10-05T12:26:49.337Z,48.31
2018-10-05T12:29:19.032Z,48.12
2018-10-05T12:31:47.685Z,47.67
2018-10-05T12:34:15.841Z,47.37
2018-10-05T12:36:44.610Z,47.25
2018-10-05T12:39:13.155Z,48.54
2018-10-05T12:41:41.388Z,48.01
2018-10-05T12:44:09.729Z,47.45
2018-10-05T12:46:38.190Z,48.60
2018-10-05T12:49:06.744Z,47.91
2018-10-05T12:51:34.921Z,48.23
2018-10-05T12:54:04.526Z,48.41
2018-10-05T12:56:32.728Z,48.23
2018-10-05T12:59:01.280Z,47.35
2018-10-05T13:01:29.749Z,48.19
2018-10-05T13:03:57.980Z,48.24
2018-10-05T13:06:26.735Z,48.20
2018-10-05T13:08:54.971Z,48.18
2018-10-05T13:11:23.176Z,47.97
2018-10-05T13:13:51.421Z,48.13
2018-10-05T13:16:19.720Z,48.53
2018-10-05T13:18:48.095Z,47.96
2018-10-05T13:21:16.343Z,49.04
2018-10-05T13:23:44.588Z,48.03
2018-10-05T13:26:12.808Z,48.10
2018-10-05T13:28:41.129Z,49.10
2018-10-05T13:31:09.275Z,49.43
2018-10-05T13:33:37.406Z,48.87
2018-10-05T13:36:05.703Z,48.84
2018-10-05T13:38:34.253Z,48.29
2018-10-05T13:41:02.482Z,48.19
2018-10-05T13:43:30.818Z,48.09
2018-10-05T13:45:59.040Z,49.64
2018-10-05T13:48:31.889Z,49.32
2018-10-05T13:51:00.173Z,49.63
2018-10-05T13:53:28.415Z,49.16
2018-10-05T13:55:56.674Z,49.21
2018-10-05T13:58:24.983Z,49.65
2018-10-05T14:00:53.202Z,49.78
2018-10-05T14:03:21.911Z,49.58
2018-10-05T14:05:50.322Z,49.39
2018-10-05T14:08:18.480Z,49.18
2018-10-05T14:10:46.668Z,49.28
2018-10-05T14:13:15.291Z,49.54
2018-10-05T14:15:43.620Z,48.74
2018-10-05T14:18:11.976Z,48.15
2018-10-05T14:20:40.376Z,48.66
2018-10-05T14:23:08.462Z,48.81
2018-10-05T14:25:36.762Z,49.72
2018-10-05T14:28:04.904Z,49.80
2018-10-05T14:30:34.211Z,49.46
2018-10-05T14:33:02.606Z,49.53
2018-10-05T14:35:30.897Z,48.96
2018-10-05T14:37:59.106Z,50.24
2018-10-05T14:40:27.592Z,50.44
2018-10-05T14:42:55.889Z,50.56
2018-10-05T14:45:24.076Z,50.25
2018-10-05T14:47:52.272Z,50.58
2018-10-05T14:50:20.432Z,50.13
2018-10-05T14:52:48.733Z,50.54
2018-10-05T14:55:16.901Z,50.35
2018-10-05T14:57:50.824Z,51.36
2018-10-05T15:00:19.764Z,51.72
2018-10-05T15:02:48.777Z,51.46
2018-10-05T15:05:17.507Z,51.79
2018-10-05T15:07:45.659Z,51.29
2018-10-05T15:10:13.925Z,52.02
2018-10-05T15:12:42.138Z,51.25
2018-10-05T15:15:10.491Z,51.16
2018-10-05T15:17:38.826Z,52.18
2018-10-05T15:20:08.670Z,52.72
2018-10-05T15:22:37.880Z,51.80
2018-10-05T15:25:06.727Z,51.39
2018-10-05T15:27:35.058Z,51.60
2018-10-05T15:30:03.331Z,51.27
2018-10-05T15:32:31.557Z,51.07
2018-10-05T15:34:59.850Z,51.60
2018-10-05T15:37:28.356Z,51.88
2018-10-05T15:39:56.850Z,51.78
2018-10-05T15:42:25.117Z,52.20
2018-10-05T15:44:53.762Z,52.41
2018-10-05T15:47:21.987Z,52.54
2018-10-05T15:49:50.137Z,52.21
2018-10-05T15:52:18.435Z,52.89
2018-10-05T15:54:46.686Z,53.15
2018-10-05T15:57:15.737Z,53.03
2018-10-05T15:59:44.905Z,53.45
2018-10-05T16:02:13.262Z,53.54
2018-10-05T16:04:41.539Z,53.83
2018-10-05T16:07:09.743Z,53.90
2018-10-05T16:09:38.087Z,54.68
2018-10-05T16:12:06.596Z,54.70
2018-10-05T16:14:34.911Z,54.24
2018-10-05T16:17:03.489Z,54.89
2018-10-05T16:19:31.785Z,55.58
2018-10-05T16:22:00.047Z,55.43
2018-10-05T16:24:32.337Z,55.52
2018-10-05T16:27:00.670Z,55.24
2018-10-05T16:29:29.019Z,55.34
2018-10-05T16:31:57.268Z,55.52
2018-10-05T16:34:25.520Z,55.32
2018-10-05T16:36:53.777Z,55.69
2018-10-05T16:39:22.647Z,55.84
2018-10-05T16:41:50.921Z,55.90
2018-10-05T16:44:19.204Z,56.34
2018-10-05T16:46:48.328Z,56.75
2018-10-05T16:49:16.609Z,57.55
2018-10-05T16:51:47.958Z,58.08
2018-10-05T16:54:16.184Z,58.34
2018-10-05T16:56:44.432Z,58.47
2018-10-05T16:59:12.706Z,58.38
2018-10-05T17:01:41.071Z,57.95
2018-10-05T17:04:09.264Z,57.85
2018-10-05T17:06:37.727Z,58.25
2018-10-05T17:09:09.613Z,58.36
2018-10-05T17:11:40.218Z,59.20
2018-10-05T17:14:08.617Z,59.48
2018-10-05T17:16:37.364Z,59.55
2018-10-05T17:19:05.940Z,59.63
2018-10-05T17:21:34.492Z,59.40
2018-10-05T17:24:02.805Z,59.40
2018-10-05T17:26:31.048Z,60.04
2018-10-05T17:28:59.294Z,59.81
2018-10-05T17:31:27.589Z,60.25
2018-10-05T17:33:55.776Z,60.43
2018-10-05T17:36:24.054Z,60.53
2018-10-05T17:38:53.049Z,60.12
2018-10-05T17:41:22.793Z,60.29
2018-10-05T17:43:51.063Z,61.25
2018-10-05T17:46:19.380Z,61.42
2018-10-05T17:48:47.686Z,61.10
2018-10-05T17:51:15.899Z,61.62
2018-10-05T17:53:44.236Z,61.92
2018-10-05T17:56:12.570Z,62.08
2018-10-05T17:58:40.691Z,62.03
2018-10-05T18:01:08.977Z,62.28
2018-10-05T18:03:40.254Z,62.38
2018-10-05T18:06:08.546Z,62.60
2018-10-05T18:08:36.860Z,63.03
2018-10-05T18:11:05.069Z,62.94
2018-10-05T18:13:33.863Z,62.81
2018-10-05T18:16:02.874Z,63.32
2018-10-05T18:18:31.545Z,63.59
2018-10-05T18:21:01.359Z,63.05
2018-10-05T18:23:29.786Z,63.17
2018-10-05T18:25:58.080Z,63.63
2018-10-05T18:28:26.579Z,63.78
2018-10-05T18:30:54.815Z,64.04
2018-10-05T18:33:23.000Z,64.42
2018-10-05T18:35:51.378Z,65.19
2018-10-05T18:38:19.945Z,65.23
2018-10-05T18:40:48.181Z,65.46
2018-10-05T18:43:16.401Z,65.37
2018-10-05T18:45:45.254Z,65.86
2018-10-05T18:48:13.476Z,66.42
2018-10-05T18:50:41.771Z,66.56
2018-10-05T18:53:10.291Z,66.08
2018-10-05T18:55:38.637Z,65.77
2018-10-05T18:58:06.858Z,66.66
2018-10-05T19:00:35.118Z,66.19
2018-10-05T19:03:03.463Z,65.75
2018-10-05T19:05:31.758Z,66.62
2018-10-05T19:08:00.561Z,65.96
2018-10-05T19:10:29.039Z,66.77
2018-10-05T19:12:57.536Z,67.05
2018-10-05T19:15:25.756Z,66.69
2018-10-05T19:17:54.131Z,67.47
2018-10-05T19:20:22.738Z,67.32
2018-10-05T19:22:50.949Z,67.33
2018-10-05T19:25:19.292Z,67.45
2018-10-05T19:27:47.500Z,67.25
2018-10-05T19:30:15.726Z,66.87
2018-10-05T19:32:44.154Z,67.41
2018-10-05T19:35:12.566Z,67.33
2018-10-05T19:37:41.016Z,67.67
2018-10-05T19:40:09.380Z,67.33
2018-10-05T19:42:37.863Z,67.58
2018-10-05T19:45:07.119Z,66.82
2018-10-05T19:47:35.614Z,67.19
2018-10-05T19:50:03.882Z,67.24
2018-10-05T19:52:32.116Z,67.95
2018-10-05T19:55:00.406Z,67.81
2018-10-05T19:57:31.540Z,67.80
2018-10-05T19:59:59.864Z,67.53
2018-10-05T20:02:28.134Z,68.00
2018-10-05T20:04:56.385Z,67.82
2018-10-05T20:07:26.345Z,68.30
2018-10-05T20:09:54.784Z,67.96
2018-10-05T20:12:23.011Z,68.06
2018-10-05T20:14:51.304Z,68.47
2018-10-05T20:17:19.537Z,68.45
2018-10-05T20:19:47.757Z,68.83
2018-10-05T20:22:16.001Z,68.18
2018-10-05T20:24:44.202Z,69.14
2018-10-05T20:27:12.724Z,69.50
2018-10-05T20:29:40.913Z,69.99
2018-10-05T20:32:09.102Z,69.33
2018-10-05T20:34:37.301Z,69.62
2018-10-05T20:37:05.709Z,69.54
2018-10-05T20:39:33.817Z,70.13
2018-10-05T20:42:02.017Z,71.02
2018-10-05T20:44:30.293Z,70.20
2018-10-05T20:46:58.468Z,70.13
2018-10-05T20:49:26.659Z,70.40
2018-10-05T20:51:54.865Z,69.93
2018-10-05T20:54:23.072Z,69.83
2018-10-05T20:56:51.529Z,69.96
2018-10-05T20:59:19.751Z,69.87
2018-10-05T21:01:47.945Z,70.16
2018-10-05T21:04:16.154Z,71.29
2018-10-05T21:06:44.374Z,70.52
2018-10-05T21:09:12.541Z,70.75
2018-10-05T21:11:40.755Z,72.11
2018-10-05T21:14:12.640Z,72.29
2018-10-05T21:16:40.873Z,72.10
2018-10-05T21:19:09.149Z,71.75
2018-10-05T21:21:37.323Z,72.27
2018-10-05T21:24:05.608Z,72.85
2018-10-05T21:26:33.818Z,72.63
2018-10-05T21:29:02.226Z,73.60
2018-10-05T21:31:31.325Z,73.28
2018-10-05T21:33:59.731Z,73.38
2018-10-05T21:36:28.094Z,73.16
2018-10-05T21:38:56.367Z,73.62
2018-10-05T21:41:24.561Z,73.20
2018-10-05T21:43:52.799Z,73.21
2018-10-05T21:46:20.955Z,73.46
2018-10-05T21:48:49.873Z,73.02
2018-10-05T21:51:18.090Z,72.34
2018-10-05T21:53:46.232Z,71.64
2018-10-05T21:56:14.490Z,72.13
2018-10-05T21:58:42.663Z,72.00
2018-10-05T22:01:10.857Z,71.90
2018-10-05T22:03:39.073Z,72.58
2018-10-05T22:06:07.435Z,73.30
2018-10-05T22:08:35.564Z,73.60
2018-10-05T22:11:04.013Z,74.05
2018-10-05T22:13:32.174Z,74.01
2018-10-05T22:16:01.061Z,74.46
2018-10-05T22:18:29.271Z,74.75
2018-10-05T22:20:57.441Z,73.79
2018-10-05T22:23:25.739Z,74.30
2018-10-05T22:25:53.931Z,73.75
2018-10-05T22:28:22.228Z,74.25
2018-10-05T22:30:50.423Z,74.36
2018-10-05T22:33:18.680Z,74.35
2018-10-05T22:35:46.912Z,74.92
2018-10-05T22:38:15.122Z,74.43
2018-10-05T22:40:43.322Z,74.47
2018-10-05T22:43:11.468Z,74.70
2018-10-05T22:45:39.804Z,75.36
2018-10-05T22:48:07.994Z,74.15
2018-10-05T22:50:36.252Z,73.74
2018-10-05T22:53:04.455Z,74.11
2018-10-05T22:55:32.704Z,74.64
2018-10-05T22:58:00.950Z,75.15
2018-10-05T23:00:29.156Z,74.08
2018-10-05T23:02:57.388Z,74.36
2018-10-05T23:05:25.604Z,75.15
2018-10-05T23:07:53.910Z,75.01
2018-10-05T23:10:22.226Z,75.37
2018-10-05T23:12:50.430Z,74.91
2018-10-05T23:15:18.635Z,75.00
2018-10-05T23:17:46.910Z,75.07
2018-10-05T23:20:15.112Z,75.61
2018-10-05T23:22:43.438Z,74.77
2018-10-05T23:25:11.598Z,75.13
2018-10-05T23:27:40.055Z,75.47
2018-10-05T23:30:08.390Z,75.64
2018-10-05T23:32:36.612Z,76.46
2018-10-05T23:35:04.850Z,76.28
2018-10-05T23:37:33.137Z,76.71
2018-10-05T23:40:01.358Z,76.10
2018-10-05T23:42:30.045Z,76.02
2018-10-05T23:44:58.232Z,76.01
2018-10-05T23:47:26.426Z,76.80
2018-10-05T23:49:55.304Z,75.98
2018-10-05T23:52:45.126Z,76.91
2018-10-05T23:55:13.282Z,77.17
2018-10-05T23:57:41.896Z,77.13
